Time;durP1;ratioP1;P1;durP2;ratioP2;P2;SDS_P1;SDS_P2;PMS_P1;PMS_P2;Temp;Humidity;BMP_temperature;BMP_pressure;BME280_temperature;BME280_humidity;BME280_pressure;Samples;Min_cycle;Max_cycle;Signal;HPM_P1;HPM_P2
2023/01/25 09:10:54;;;;;;;8.85;7.03;;;11.60;71.40;;;;;;5109191;27;20366;-77
2023/01/25 09:13:21;;;;;;;8.32;6.32;;;10.90;70.30;;;;;;5100637;28;20140;-77
2023/01/25 09:15:48;;;;;;;7.90;6.57;;;;;;;;;;5098862;28;20054;-77
2023/01/25 09:18:15;;;;;;;8.57;6.00;;;11.70;69.70;;;;;;5098798;28;20520;-77
2023/01/25 09:20:42;;;;;;;8.02;5.72;;;;;;;;;;5098845;28;20061;-77
2023/01/25 09:23:09;;;;;;;7.25;6.07;;;11.80;61.00;;;;;;5092033;28;20055;-77
2023/01/25 09:25:35;;;;;;;7.90;5.95;;;11.80;68.90;;;;;;5103959;28;20493;-77
2023/01/25 09:28:10;;;;;;;7.75;6.15;;;12.40;68.90;;;;;;5105806;28;20135;-78
2023/01/25 09:30:38;;;;;;;7.65;6.40;;;12.00;64.60;;;;;;5111618;28;20044;-77
2023/01/25 09:33:05;;;;;;;9.18;6.70;;;;;;;;;;5107860;28;20059;-76
2023/01/25 09:35:34;;;;;;;7.53;6.22;;;12.10;60.80;;;;;;5108462;28;20138;-76
2023/01/25 09:38:01;;;;;;;7.60;6.20;;;12.40;69.10;;;;;;5107741;28;20051;-76
2023/01/25 09:40:30;;;;;;;8.45;6.22;;;12.40;68.10;;;;;;5107833;28;20079;-76
2023/01/25 09:42:58;;;;;;;6.82;5.65;;;12.50;68.60;;;;;;5109107;28;20048;-76
2023/01/25 09:45:30;;;;;;;7.85;6.28;;;12.30;61.00;;;;;;5107872;28;20094;-76
2023/01/25 09:48:00;;;;;;;12.20;6.32;;;12.40;68.70;;;;;;5109266;28;20131;-76
2023/01/25 09:50:33;;;;;;;6.63;5.90;;;12.50;67.70;;;;;;5102825;28;20047;-76
2023/01/25 09:53:25;;;;;;;9.30;6.10;;;12.50;60.60;;;;;;5108989;28;20137;-76
2023/01/25 09:55:54;;;;;;;7.72;6.03;;;12.60;60.40;;;;;;5099708;28;20439;-76
2023/01/25 09:58:24;;;;;;;8.38;6.03;;;13.10;67.60;;;;;;5096899;28;20056;-76
2023/01/25 10:00:54;;;;;;;8.40;6.15;;;12.60;60.30;;;;;;5095901;28;20054;-74
2023/01/25 10:03:22;;;;;;;6.80;5.97;;;12.70;67.10;;;;;;5095945;28;20047;-74
2023/01/25 10:05:50;;;;;;;7.55;5.60;;;;;;;;;;5096056;28;20047;-74
2023/01/25 10:08:20;;;;;;;6.60;5.68;;;12.70;59.60;;;;;;5097842;28;20399;-74
2023/01/25 10:10:48;;;;;;;6.60;5.57;;;12.70;59.90;;;;;;5116869;28;20040;-74
2023/01/25 10:13:16;;;;;;;9.00;5.88;;;12.70;59.90;;;;;;5118178;28;20057;-74
2023/01/25 10:15:45;;;;;;;6.75;5.70;;;12.70;59.80;;;;;;5118235;28;20127;-74
2023/01/25 10:18:18;;;;;;;6.50;5.72;;;12.70;59.70;;;;;;5118224;28;20131;-74
2023/01/25 10:20:47;;;;;;;6.40;5.45;;;12.70;59.50;;;;;;5113177;28;20048;-74
2023/01/25 10:23:33;;;;;;;6.75;5.72;;;12.70;59.50;;;;;;5102875;28;20513;-74
2023/01/25 10:26:00;;;;;;;25.48;7.47;;;12.80;59.40;;;;;;5114087;28;20058;-74
2023/01/25 10:28:37;;;;;;;8.80;5.68;;;13.30;59.70;;;;;;5114038;28;20059;-74
2023/01/25 10:31:05;;;;;;;7.28;5.45;;;12.80;59.30;;;;;;5113814;28;20047;-74
2023/01/25 10:33:35;;;;;;;9.90;5.65;;;12.80;66.60;;;;;;5113708;28;20130;-73
2023/01/25 10:36:02;;;;;;;7.15;5.60;;;;;;;;;;5113644;28;20058;-74
2023/01/25 10:38:32;;;;;;;7.55;5.75;;;12.90;58.70;;;;;;5104172;28;20472;-73
2023/01/25 10:41:02;;;;;;;8.80;5.70;;;13.60;59.50;;;;;;5102535;28;20047;-74
2023/01/25 10:43:29;;;;;;;8.10;5.72;;;13.00;66.50;;;;;;5100324;28;20048;-73
2023/01/25 10:45:55;;;;;;;11.65;5.93;;;13.00;58.90;;;;;;5112190;28;20065;-73
2023/01/25 10:48:24;;;;;;;7.95;5.20;;;13.00;58.90;;;;;;5110988;28;20127;-73
2023/01/25 10:50:53;;;;;;;7.32;5.68;;;13.00;58.80;;;;;;5099674;28;20043;-73
2023/01/25 10:53:31;;;;;;;6.82;5.40;;;13.00;58.70;;;;;;5102591;28;20523;-73
2023/01/25 10:56:00;;;;;;;7.47;5.30;;;13.00;58.70;;;;;;5107211;28;20173;-73
2023/01/25 10:58:35;;;;;;;9.13;5.38;;;13.00;65.60;;;;;;5092845;28;20047;-72
2023/01/25 11:01:03;;;;;;;8.02;5.22;;;13.20;65.60;;;;;;5100189;28;20128;-73
2023/01/25 11:03:37;;;;;;;6.68;5.80;;;12.80;66.10;;;;;;5094403;28;20048;-74
2023/01/25 11:06:05;;;;;;;8.52;5.60;;;13.00;66.00;;;;;;5093422;28;20064;-73
2023/01/25 11:08:34;;;;;;;6.95;5.22;;;12.30;65.40;;;;;;5092503;28;20139;-73
2023/01/25 11:11:00;;;;;;;7.97;5.30;;;13.10;58.50;;;;;;5092295;28;20126;-73
2023/01/25 11:13:27;;;;;;;8.80;5.40;;;13.10;58.50;;;;;;5099298;28;20058;-73
2023/01/25 11:15:55;;;;;;;7.50;5.25;;;13.10;57.90;;;;;;5093726;28;20052;-73
2023/01/25 11:18:24;;;;;;;6.32;4.97;;;13.10;58.40;;;;;;5098210;28;20071;-73
2023/01/25 11:21:05;;;;;;;7.20;5.32;;;13.40;58.60;;;;;;5102722;28;20048;-74
2023/01/25 11:23:33;;;;;;;6.60;5.25;;;13.10;58.30;;;;;;5093162;28;20509;-73
2023/01/25 11:26:15;;;;;;;6.65;5.55;;;13.60;58.60;;;;;;5100724;28;20116;-74
2023/01/25 11:28:43;;;;;;;8.15;5.47;;;13.20;58.30;;;;;;5098708;28;20074;-75
2023/01/25 11:31:11;;;;;;;7.28;5.55;;;13.40;58.50;;;;;;5093342;28;20059;-75
2023/01/25 11:33:38;;;;;;;8.35;5.50;;;13.10;64.70;;;;;;5108931;28;20137;-73
2023/01/25 11:36:18;;;;;;;7.85;5.30;;;13.10;58.20;;;;;;5112007;28;20138;-73
2023/01/25 11:38:51;;;;;;;11.52;6.03;;;13.20;58.20;;;;;;5112667;28;20048;-74
2023/01/25 11:41:21;;;;;;;7.30;5.85;;;13.30;58.30;;;;;;5111683;28;20130;-73
2023/01/25 11:43:57;;;;;;;9.98;5.57;;;13.10;58.10;;;;;;5112396;28;20559;-73
2023/01/25 11:46:29;;;;;;;10.05;6.10;;;13.10;58.10;;;;;;5112328;28;20051;-73
2023/01/25 11:49:08;;;;;;;8.52;5.20;;;14.10;65.90;;;;;;5112638;28;20056;-73
2023/01/25 11:51:41;;;;;;;7.90;5.57;;;13.20;58.20;;;;;;5111915;28;20054;-73
2023/01/25 11:54:42;;;;;;;10.55;5.63;;;13.40;64.50;;;;;;5112053;28;20142;-73
2023/01/25 11:57:18;;;;;;;10.32;5.50;;;13.10;65.30;;;;;;5111955;28;20059;-73
2023/01/25 11:59:53;;;;;;;8.77;5.53;;;13.60;58.90;;;;;;5111764;28;20054;-73
2023/01/25 12:02:35;;;;;;;7.55;5.38;;;13.20;58.20;;;;;;5111870;28;20559;-73
2023/01/25 12:05:17;;;;;;;7.88;5.53;;;13.20;58.20;;;;;;5112098;28;20061;-73
2023/01/25 12:07:48;;;;;;;7.40;5.28;;;13.20;58.20;;;;;;5112248;28;20051;-73
2023/01/25 12:10:20;;;;;;;11.05;5.45;;;13.30;64.40;;;;;;5108383;28;20056;-73
2023/01/25 12:12:50;;;;;;;8.90;5.32;;;13.00;65.00;;;;;;5091272;28;20070;-73
2023/01/25 12:15:33;;;;;;;8.13;5.00;;;12.40;64.50;;;;;;5104859;28;20051;-73
2023/01/25 12:18:22;;;;;;;7.22;5.43;;;14.20;66.10;;;;;;5111982;28;20051;-74
2023/01/25 12:21:04;;;;;;;8.73;5.50;;;13.30;58.20;;;;;;5100764;28;20130;-73
2023/01/25 12:23:36;;;;;;;9.63;6.20;;;13.10;58.10;;;;;;5109346;28;20053;-73
2023/01/25 12:26:09;;;;;;;9.60;6.28;;;13.00;65.50;;;;;;5111101;28;20134;-73
2023/01/25 12:28:38;;;;;;;8.50;6.07;;;13.00;58.10;;;;;;5111432;28;20128;-73
2023/01/25 12:31:07;;;;;;;10.65;5.85;;;13.40;58.30;;;;;;5111187;28;20054;-73
2023/01/25 12:33:36;;;;;;;7.35;5.63;;;13.00;64.30;;;;;;5111031;28;20047;-73
2023/01/25 12:36:05;;;;;;;7.15;5.50;;;13.00;58.10;;;;;;5111180;28;20138;-73
2023/01/25 12:38:35;;;;;;;7.57;5.85;;;13.00;58.00;;;;;;5111441;28;20050;-74
2023/01/25 12:41:04;;;;;;;8.52;6.43;;;12.90;57.90;;;;;;5111204;28;20054;-74
2023/01/25 12:43:33;;;;;;;7.57;5.70;;;12.90;57.80;;;;;;5107675;28;20468;-74
2023/01/25 12:46:00;;;;;;;7.82;5.88;;;13.40;58.10;;;;;;5100470;28;20074;-73
2023/01/25 12:48:29;;;;;;;9.32;6.00;;;12.90;57.30;;;;;;5102030;28;20122;-74
2023/01/25 12:50:56;;;;;;;7.40;5.90;;;12.80;57.70;;;;;;5096206;28;20044;-76
2023/01/25 12:53:24;;;;;;;7.70;5.90;;;12.90;57.90;;;;;;5090808;28;20048;-78
2023/01/25 12:55:52;;;;;;;7.28;5.72;;;12.90;58.00;;;;;;5091206;28;20134;-77
2023/01/25 12:58:23;;;;;;;6.95;6.00;;;13.00;58.10;;;;;;5091163;28;20143;-77
2023/01/25 13:00:52;;;;;;;10.35;5.35;;;13.00;58.10;;;;;;5090532;28;20048;-76
2023/01/25 13:03:25;;;;;;;8.90;5.85;;;12.70;65.10;;;;;;5090797;28;20105;-75
2023/01/25 13:05:52;;;;;;;8.65;6.13;;;;;;;;;;5090654;28;20417;-75
2023/01/25 13:08:24;;;;;;;8.60;6.10;;;13.00;65.70;;;;;;5090561;28;20059;-75
2023/01/25 13:10:53;;;;;;;7.07;5.90;;;13.20;58.00;;;;;;5098649;28;20043;-74
2023/01/25 13:13:22;;;;;;;7.93;6.03;;;13.20;58.00;;;;;;5107401;28;20058;-74
2023/01/25 13:15:49;;;;;;;10.90;6.03;;;13.20;58.00;;;;;;5110955;28;20051;-74
2023/01/25 13:18:40;;;;;;;6.85;5.88;;;13.20;65.50;;;;;;5110669;28;20087;-74
2023/01/25 13:21:11;;;;;;;7.90;5.75;;;13.20;57.80;;;;;;5111213;28;20400;-73
2023/01/25 13:23:42;;;;;;;7.60;6.07;;;13.20;57.90;;;;;;5109757;28;20101;-74
2023/01/25 13:26:38;;;;;;;7.28;5.90;;;13.40;58.00;;;;;;5111012;28;20052;-73
2023/01/25 13:29:26;;;;;;;7.75;5.43;;;13.20;57.70;;;;;;5089088;28;20055;-73
2023/01/25 13:31:53;;;;;;;6.78;5.85;;;13.20;57.90;;;;;;5110684;28;20416;-74
2023/01/25 13:34:53;;;;;;;7.45;5.32;;;13.10;57.90;;;;;;5110311;28;20055;-74
2023/01/25 13:37:20;;;;;;;9.15;5.63;;;13.20;57.80;;;;;;5099277;28;20051;-75
2023/01/25 13:39:47;;;;;;;7.88;5.43;;;13.20;57.90;;;;;;5110634;28;20124;-77
2023/01/25 13:42:21;;;;;;;7.97;5.80;;;12.00;64.10;;;;;;5110288;28;20108;-76
2023/01/25 13:44:49;;;;;;;6.10;5.07;;;13.20;57.60;;;;;;5111187;28;20067;-76
2023/01/25 13:47:17;;;;;;;6.88;5.18;;;13.20;65.10;;;;;;5110868;28;20414;-76
2023/01/25 13:49:50;;;;;;;5.78;4.85;;;14.40;65.30;;;;;;5100061;28;20043;-76
2023/01/25 13:52:17;;;;;;;7.43;5.00;;;13.50;57.80;;;;;;5098450;28;20054;-76
2023/01/25 13:54:44;;;;;;;5.63;5.03;;;13.20;57.60;;;;;;5101051;28;20062;-76
2023/01/25 13:57:12;;;;;;;6.60;4.97;;;13.20;57.60;;;;;;5104484;28;20101;-73
2023/01/25 13:59:40;;;;;;;11.25;7.97;;;13.20;57.50;;;;;;5104337;28;20056;-73
2023/01/25 14:02:13;;;;;;;15.48;12.27;;;13.20;64.20;;;;;;5101414;28;20131;-74
2023/01/25 14:04:40;;;;;;;9.57;7.32;;;13.20;56.70;;;;;;5104845;28;20066;-74
2023/01/25 14:07:09;;;;;;;9.80;7.43;;;;;;;;;;5104641;28;20415;-74
2023/01/25 14:09:36;;;;;;;9.98;6.57;;;13.10;56.40;;;;;;5103719;28;20047;-74
2023/01/25 14:12:05;;;;;;;12.10;7.47;;;13.10;63.80;;;;;;5104404;28;20050;-74
2023/01/25 14:14:32;;;;;;;11.73;8.23;;;13.10;56.90;;;;;;5103363;28;20052;-74
2023/01/25 14:17:12;;;;;;;9.88;7.55;;;13.10;56.90;;;;;;5105557;28;20062;-74
2023/01/25 14:19:39;;;;;;;10.35;7.65;;;13.00;64.80;;;;;;5101536;28;20130;-74
2023/01/25 14:22:29;;;;;;;9.98;7.70;;;13.10;56.90;;;;;;5101807;28;20123;-74
2023/01/25 14:25:09;;;;;;;10.40;7.43;;;13.80;57.70;;;;;;4985429;28;20116;-74
2023/01/25 14:27:37;;;;;;;8.70;7.20;;;13.10;56.70;;;;;;5063077;28;20120;-74
2023/01/25 14:30:04;;;;;;;9.05;7.30;;;13.10;56.80;;;;;;5063953;28;20056;-74
2023/01/25 14:32:32;;;;;;;9.98;7.65;;;12.50;63.50;;;;;;5062047;28;20055;-74
2023/01/25 14:34:59;;;;;;;8.52;7.50;;;12.50;63.50;;;;;;5062353;28;20109;-74
2023/01/25 14:37:26;;;;;;;9.93;7.10;;;13.10;56.70;;;;;;5058436;28;20075;-79
2023/01/25 14:39:53;;;;;;;7.07;5.93;;;13.10;56.60;;;;;;5058173;28;20052;-77
2023/01/25 14:42:19;;;;;;;9.05;6.85;;;13.10;56.60;;;;;;5066135;28;20468;-77
2023/01/25 14:44:46;;;;;;;8.07;6.47;;;13.10;56.60;;;;;;5073362;28;20048;-77
2023/01/25 14:47:20;;;;;;;9.52;6.57;;;13.10;56.60;;;;;;5072967;28;20080;-77
2023/01/25 14:49:48;;;;;;;8.95;6.57;;;13.10;56.60;;;;;;5062094;28;20085;-77
2023/01/25 14:52:18;;;;;;;8.23;6.68;;;13.10;56.60;;;;;;5072517;28;20049;-77
2023/01/25 14:54:47;;;;;;;8.80;6.20;;;13.10;56.60;;;;;;5072667;28;20049;-77
2023/01/25 14:57:29;;;;;;;9.25;6.75;;;13.00;64.00;;;;;;5068395;28;20489;-77
2023/01/25 14:59:56;;;;;;;11.52;7.00;;;13.10;56.60;;;;;;5063791;28;20128;-78
2023/01/25 15:02:24;;;;;;;9.02;6.93;;;13.10;56.70;;;;;;5061585;28;20045;-77
2023/01/25 15:04:54;;;;;;;9.18;7.13;;;13.10;56.60;;;;;;5052539;28;20136;-78
2023/01/25 15:07:36;;;;;;;8.27;5.97;;;13.20;56.70;;;;;;5052753;28;20135;-78
2023/01/25 15:10:04;;;;;;;8.27;6.47;;;13.60;56.80;;;;;;5052321;28;20078;-77
2023/01/25 15:12:31;;;;;;;7.60;6.15;;;13.00;64.30;;;;;;5066487;28;20041;-77
2023/01/25 15:14:58;;;;;;;7.57;5.97;;;13.10;56.60;;;;;;5064729;28;20456;-77
2023/01/25 15:17:42;;;;;;;7.78;6.10;;;13.10;56.50;;;;;;5060555;28;20131;-79
2023/01/25 15:20:28;;;;;;;8.35;5.78;;;13.10;56.40;;;;;;5080737;28;20049;-78
2023/01/25 15:22:55;;;;;;;7.47;5.80;;;13.10;56.40;;;;;;5087239;28;20055;-78
2023/01/25 15:25:22;;;;;;;7.05;6.13;;;13.10;56.60;;;;;;5080669;28;20044;-77
2023/01/25 15:27:50;;;;;;;6.93;5.80;;;13.10;56.70;;;;;;5082110;28;20415;-78
2023/01/25 15:30:17;;;;;;;8.48;5.78;;;13.00;62.60;;;;;;5084623;28;20127;-78
2023/01/25 15:32:44;;;;;;;7.53;5.53;;;13.70;57.00;;;;;;5071523;28;20404;-78
2023/01/25 15:35:12;;;;;;;7.13;5.40;;;13.60;57.00;;;;;;5077635;28;20052;-78
2023/01/25 15:37:41;;;;;;;7.57;5.85;;;13.00;63.80;;;;;;5071807;28;20048;-78
2023/01/25 15:40:10;;;;;;;7.57;5.70;;;13.30;64.10;;;;;;5080321;28;20049;-78
2023/01/25 15:42:36;;;;;;;6.55;5.15;;;13.10;56.70;;;;;;5074646;28;20040;-78
2023/01/25 15:45:04;;;;;;;7.28;5.43;;;13.10;56.70;;;;;;5099642;28;20211;-78
2023/01/25 15:47:30;;;;;;;7.18;5.32;;;13.10;56.70;;;;;;5086564;28;20514;-78
2023/01/25 15:49:57;;;;;;;6.72;5.38;;;13.60;57.50;;;;;;5081802;28;20055;-77
2023/01/25 15:52:24;;;;;;;7.35;5.60;;;13.00;63.80;;;;;;5079728;28;20123;-78
2023/01/25 15:54:52;;;;;;;6.97;5.35;;;13.20;64.20;;;;;;5079883;28;20145;-78
2023/01/25 15:57:29;;;;;;;6.40;5.43;;;13.00;57.20;;;;;;5080242;28;20123;-78
2023/01/25 15:59:56;;;;;;;6.82;5.03;;;13.10;56.60;;;;;;5078124;28;20049;-78
2023/01/25 16:02:23;;;;;;;6.75;5.07;;;13.10;56.70;;;;;;5083836;28;20071;-79
2023/01/25 16:04:49;;;;;;;6.78;5.43;;;13.70;57.00;;;;;;5080401;28;20052;-78
2023/01/25 16:07:20;;;;;;;6.53;5.10;;;12.00;63.30;;;;;;5083285;28;20405;-77
2023/01/25 16:09:48;;;;;;;6.80;4.90;;;14.30;57.40;;;;;;5081667;28;20052;-78
2023/01/25 16:12:16;;;;;;;7.40;5.43;;;13.10;56.70;;;;;;5079256;28;20086;-78
2023/01/25 16:14:44;;;;;;;6.70;5.10;;;13.10;56.70;;;;;;5079319;28;20135;-77
2023/01/25 16:17:16;;;;;;;6.93;5.22;;;14.00;64.80;;;;;;5075775;28;20062;-78
2023/01/25 16:19:44;;;;;;;6.60;4.93;;;13.00;56.60;;;;;;5081100;28;20060;-77
2023/01/25 16:22:11;;;;;;;6.90;5.20;;;13.00;56.60;;;;;;5071025;28;20062;-79
2023/01/25 16:24:38;;;;;;;6.63;5.18;;;13.40;56.90;;;;;;5082952;28;20058;-78
2023/01/25 16:27:05;;;;;;;7.63;4.93;;;13.30;63.70;;;;;;5080276;28;20062;-78
2023/01/25 16:29:33;;;;;;;7.47;5.10;;;13.40;56.90;;;;;;5079367;28;20048;-79
2023/01/25 16:31:59;;;;;;;8.27;5.22;;;13.40;56.90;;;;;;5069256;28;20045;-77
2023/01/25 16:34:26;;;;;;;7.45;4.95;;;13.00;56.70;;;;;;5070601;28;20079;-78
2023/01/25 16:36:53;;;;;;;6.20;4.65;;;12.90;63.40;;;;;;5078663;28;20457;-78
2023/01/25 16:39:20;;;;;;;6.55;4.90;;;13.80;63.50;;;;;;5076212;28;20218;-77
2023/01/25 16:41:47;;;;;;;6.25;4.72;;;13.40;64.30;;;;;;5079446;28;20084;-78
2023/01/25 16:44:14;;;;;;;5.95;4.65;;;13.00;56.70;;;;;;5078424;28;20048;-78
2023/01/25 16:46:42;;;;;;;6.38;5.00;;;13.00;56.80;;;;;;5079183;28;20131;-77
2023/01/25 16:49:10;;;;;;;8.30;5.38;;;13.00;56.80;;;;;;5079245;28;20056;-77
2023/01/25 16:51:37;;;;;;;6.40;4.85;;;13.00;57.40;;;;;;5078596;28;20507;-78
2023/01/25 16:54:04;;;;;;;6.28;4.85;;;14.00;64.80;;;;;;5074627;28;20052;-77
2023/01/25 16:56:31;;;;;;;6.32;4.60;;;12.90;56.70;;;;;;5081107;28;20602;-78
2023/01/25 16:59:00;;;;;;;6.70;4.82;;;13.00;56.70;;;;;;5078323;28;20126;-77
2023/01/25 17:01:27;;;;;;;6.00;4.60;;;13.00;56.80;;;;;;5073264;28;20489;-78
2023/01/25 17:03:55;;;;;;;6.32;5.00;;;13.30;64.60;;;;;;5075338;28;20132;-77
2023/01/25 17:06:23;;;;;;;6.35;4.60;;;13.00;64.30;;;;;;5068925;28;20050;-78
2023/01/25 17:08:50;;;;;;;7.03;5.25;;;13.00;63.90;;;;;;5078869;28;20053;-78
2023/01/25 17:11:18;;;;;;;6.93;5.28;;;12.90;56.80;;;;;;5074851;28;20109;-79
2023/01/25 17:13:47;;;;;;;5.45;4.45;;;12.90;56.80;;;;;;5082335;28;20485;-79
2023/01/25 17:16:14;;;;;;;6.30;4.55;;;13.00;64.00;;;;;;5074064;28;20127;-77
2023/01/25 17:18:41;;;;;;;6.80;4.40;;;12.90;56.80;;;;;;5074665;28;20052;-78
2023/01/25 17:21:11;;;;;;;5.75;4.22;;;12.90;56.90;;;;;;5078393;28;20420;-77
2023/01/25 17:23:38;;;;;;;6.03;4.60;;;12.90;56.90;;;;;;5066840;28;20053;-78
2023/01/25 17:26:05;;;;;;;7.15;4.97;;;12.90;64.50;;;;;;5083255;28;20064;-78
2023/01/25 17:28:31;;;;;;;6.82;4.60;;;12.90;57.00;;;;;;5079152;28;20428;-78
2023/01/25 17:30:58;;;;;;;5.82;4.10;;;12.90;56.80;;;;;;5081688;28;20056;-78
2023/01/25 17:33:25;;;;;;;6.05;4.75;;;12.70;64.80;;;;;;5085813;28;20040;-78
2023/01/25 17:35:57;;;;;;;6.60;4.75;;;12.90;63.00;;;;;;5084639;28;20083;-78
2023/01/25 17:38:25;;;;;;;6.95;4.85;;;12.90;56.90;;;;;;5082609;28;20048;-78
2023/01/25 17:40:52;;;;;;;6.45;4.72;;;13.50;57.20;;;;;;5083280;28;20060;-74
2023/01/25 17:43:18;;;;;;;6.20;4.50;;;12.90;56.80;;;;;;5078846;28;20036;-74
2023/01/25 17:45:45;;;;;;;5.85;4.65;;;13.00;56.90;;;;;;5078201;28;20136;-74
2023/01/25 17:48:12;;;;;;;6.13;4.55;;;;;;;;;;5085596;28;20048;-74
2023/01/25 17:50:39;;;;;;;6.30;5.00;;;12.80;64.20;;;;;;5060478;28;20413;-74
2023/01/25 17:53:07;;;;;;;6.28;4.72;;;12.90;56.80;;;;;;5064624;28;20050;-74
2023/01/25 17:55:37;;;;;;;7.32;4.55;;;12.90;56.80;;;;;;5059006;28;20412;-75
2023/01/25 17:58:04;;;;;;;6.95;4.55;;;;;;;;;;5083461;28;20052;-74
2023/01/25 18:00:32;;;;;;;6.80;5.40;;;;;;;;;;5067495;28;20076;-74
2023/01/25 18:02:59;;;;;;;6.32;5.03;;;12.90;56.30;;;;;;5076516;28;20051;-74
2023/01/25 18:05:27;;;;;;;7.28;5.05;;;12.90;56.80;;;;;;5079160;28;20087;-74
2023/01/25 18:07:54;;;;;;;5.80;4.40;;;13.00;63.90;;;;;;5077519;28;20049;-74
2023/01/25 18:10:20;;;;;;;6.43;4.50;;;13.00;62.70;;;;;;5081943;28;20059;-74
2023/01/25 18:12:50;;;;;;;6.47;4.47;;;13.00;56.80;;;;;;5081825;28;20485;-74
2023/01/25 18:15:17;;;;;;;7.03;4.63;;;13.00;56.60;;;;;;5081598;28;20052;-74
2023/01/25 18:17:44;;;;;;;7.35;4.80;;;13.00;64.00;;;;;;5074005;28;20059;-74
2023/01/25 18:20:12;;;;;;;7.43;5.00;;;13.00;56.70;;;;;;5077311;28;20056;-74
2023/01/25 18:22:38;;;;;;;6.30;4.70;;;13.10;64.10;;;;;;5077444;28;20059;-73
2023/01/25 18:25:07;;;;;;;8.18;4.85;;;13.50;56.90;;;;;;5078170;28;20060;-74
2023/01/25 18:27:33;;;;;;;7.07;5.00;;;13.10;56.50;;;;;;5082656;28;20386;-74
2023/01/25 18:30:03;;;;;;;7.32;5.25;;;13.10;56.50;;;;;;5085652;28;20135;-74
2023/01/25 18:32:31;;;;;;;7.32;5.13;;;;;;;;;;5083323;28;20054;-76
2023/01/25 18:34:58;;;;;;;6.72;4.63;;;13.10;55.90;;;;;;5076655;28;20048;-76
2023/01/25 18:37:32;;;;;;;6.75;4.65;;;12.10;63.10;;;;;;5083154;28;20050;-76
2023/01/25 18:39:58;;;;;;;5.97;4.45;;;13.10;56.40;;;;;;5081916;28;20052;-76
2023/01/25 18:42:26;;;;;;;6.95;4.47;;;13.40;56.50;;;;;;5082768;28;20040;-76
2023/01/25 18:44:52;;;;;;;7.80;5.07;;;13.20;56.40;;;;;;5085913;28;20078;-76
2023/01/25 18:47:21;;;;;;;6.50;4.85;;;13.70;64.20;;;;;;5084262;28;20400;-76
2023/01/25 18:49:49;;;;;;;6.47;4.90;;;13.20;56.40;;;;;;5080806;28;20056;-76
2023/01/25 18:52:16;;;;;;;8.23;5.18;;;13.10;64.20;;;;;;5084920;28;20044;-76
2023/01/25 18:54:42;;;;;;;6.70;4.80;;;13.30;56.50;;;;;;5081315;28;20062;-76
2023/01/25 18:57:10;;;;;;;6.55;4.72;;;13.20;56.40;;;;;;5085655;28;20055;-76
2023/01/25 18:59:37;;;;;;;6.68;4.80;;;13.20;56.40;;;;;;5086655;28;20105;-76
2023/01/25 19:02:04;;;;;;;7.47;5.32;;;12.30;63.70;;;;;;5075981;28;20049;-76
2023/01/25 19:04:32;;;;;;;6.10;4.57;;;13.70;56.70;;;;;;5081837;28;20131;-76
2023/01/25 19:07:00;;;;;;;6.68;4.75;;;13.20;57.00;;;;;;5071187;28;20132;-76
2023/01/25 19:09:27;;;;;;;6.53;4.78;;;13.20;56.40;;;;;;5083402;28;20087;-76
2023/01/25 19:11:54;;;;;;;9.52;5.35;;;13.20;63.30;;;;;;5073507;28;20055;-76
2023/01/25 19:14:20;;;;;;;7.22;4.80;;;12.60;63.70;;;;;;5079397;28;20088;-76
2023/01/25 19:16:47;;;;;;;7.57;5.03;;;13.20;56.40;;;;;;5069717;28;20127;-76
2023/01/25 19:19:14;;;;;;;7.28;5.00;;;13.70;63.60;;;;;;5073380;28;20044;-74
2023/01/25 19:21:42;;;;;;;7.05;5.38;;;13.40;56.40;;;;;;5071167;28;20053;-76
2023/01/25 19:24:09;;;;;;;6.47;4.53;;;13.20;56.30;;;;;;5085312;28;20056;-76
2023/01/25 19:26:36;;;;;;;7.80;5.22;;;13.20;56.30;;;;;;5080763;28;20446;-76
2023/01/25 19:29:02;;;;;;;8.02;5.65;;;13.20;56.30;;;;;;5077940;28;20057;-76
2023/01/25 19:31:31;;;;;;;7.32;5.10;;;13.20;56.30;;;;;;5073767;28;20059;-76
2023/01/25 19:33:59;;;;;;;7.47;4.82;;;13.40;56.30;;;;;;5083857;28;20126;-76
2023/01/25 19:36:26;;;;;;;6.63;5.13;;;13.30;56.30;;;;;;5069535;28;20049;-76
2023/01/25 19:38:56;;;;;;;6.97;4.95;;;13.30;56.30;;;;;;5077385;28;20059;-76
2023/01/25 19:41:23;;;;;;;7.63;5.50;;;13.20;56.20;;;;;;5083591;28;20044;-76
2023/01/25 19:43:52;;;;;;;7.32;5.22;;;13.30;56.30;;;;;;5078271;28;20048;-76
2023/01/25 19:46:19;;;;;;;7.47;5.20;;;13.40;63.60;;;;;;5083084;28;20052;-76
2023/01/25 19:48:47;;;;;;;7.65;5.45;;;13.30;56.20;;;;;;5067812;28;20140;-74
2023/01/25 19:51:14;;;;;;;7.28;4.68;;;13.30;56.30;;;;;;5073340;28;20050;-73
2023/01/25 19:53:45;;;;;;;7.38;5.10;;;13.30;64.30;;;;;;5079194;28;20048;-75
2023/01/25 19:56:14;;;;;;;9.27;5.68;;;13.40;56.30;;;;;;5062774;28;20101;-74
2023/01/25 19:58:40;;;;;;;8.23;5.80;;;13.30;56.20;;;;;;5064366;28;20583;-74
2023/01/25 20:01:07;;;;;;;6.85;5.13;;;13.70;63.90;;;;;;5068994;28;20052;-74
2023/01/25 20:03:34;;;;;;;8.18;5.28;;;13.70;56.50;;;;;;5063607;28;20049;-74
2023/01/25 20:06:02;;;;;;;8.40;5.53;;;13.20;63.30;;;;;;5065732;28;20102;-74
2023/01/25 20:08:29;;;;;;;7.50;5.50;;;13.30;56.20;;;;;;5063473;28;20064;-74
2023/01/25 20:10:58;;;;;;;7.85;5.50;;;13.30;64.20;;;;;;5066459;28;20132;-74
2023/01/25 20:13:26;;;;;;;7.88;5.40;;;13.30;56.20;;;;;;5069160;28;20051;-74
2023/01/25 20:15:52;;;;;;;9.30;5.90;;;13.60;56.40;;;;;;5072270;28;20049;-74
2023/01/25 20:18:19;;;;;;;9.35;5.93;;;13.30;56.20;;;;;;5081193;28;20127;-74
2023/01/25 20:20:54;;;;;;;7.22;5.40;;;13.30;56.20;;;;;;5079173;28;20553;-74
2023/01/25 20:23:21;;;;;;;7.47;5.53;;;13.30;56.20;;;;;;5090118;28;20059;-74
2023/01/25 20:25:55;;;;;;;8.13;5.57;;;13.30;56.20;;;;;;5085160;28;20522;-74
2023/01/25 20:28:22;;;;;;;7.82;5.75;;;13.30;55.80;;;;;;5051715;28;20059;-74
2023/01/25 20:30:50;;;;;;;9.27;6.30;;;13.30;56.30;;;;;;5051886;28;20443;-74
2023/01/25 20:33:17;;;;;;;9.02;6.07;;;13.40;56.20;;;;;;5067520;28;20052;-74
2023/01/25 20:35:44;;;;;;;7.80;5.70;;;13.40;56.20;;;;;;5067386;28;20060;-74
2023/01/25 20:38:11;;;;;;;9.80;5.95;;;13.40;64.30;;;;;;5070405;28;20048;-74
2023/01/25 20:40:38;;;;;;;9.52;6.10;;;;;;;;;;5071120;28;20052;-74
2023/01/25 20:43:04;;;;;;;11.60;6.80;;;13.40;63.50;;;;;;5070470;28;20127;-74
2023/01/25 20:45:33;;;;;;;16.67;6.63;;;13.40;56.30;;;;;;5072099;28;20487;-74
2023/01/25 20:48:01;;;;;;;15.35;6.97;;;13.40;56.50;;;;;;5071003;28;20131;-74
2023/01/25 20:50:28;;;;;;;12.57;6.90;;;13.00;62.90;;;;;;5059334;28;20139;-74
2023/01/25 20:52:55;;;;;;;9.75;6.85;;;13.40;56.80;;;;;;5062332;28;20140;-74
2023/01/25 20:55:22;;;;;;;11.55;6.72;;;;;;;;;;5063054;28;20040;-74
2023/01/25 20:57:48;;;;;;;9.52;6.63;;;13.40;63.00;;;;;;5060589;28;20057;-74
2023/01/25 21:00:17;;;;;;;11.90;6.80;;;14.30;64.30;;;;;;5061950;28;20565;-74
2023/01/25 21:02:44;;;;;;;9.50;6.07;;;;;;;;;;5059200;28;20136;-74
2023/01/25 21:05:12;;;;;;;10.07;6.05;;;13.40;56.30;;;;;;5061422;28;20049;-74
2023/01/25 21:07:38;;;;;;;10.13;6.82;;;13.40;56.80;;;;;;5059668;28;20059;-74
2023/01/25 21:10:06;;;;;;;10.07;6.07;;;13.40;63.80;;;;;;5061755;28;20400;-74
2023/01/25 21:12:33;;;;;;;10.23;6.63;;;13.40;56.80;;;;;;5061575;28;20060;-74
2023/01/25 21:15:00;;;;;;;10.60;6.43;;;;;;;;;;5061069;28;20064;-74
2023/01/25 21:17:27;;;;;;;11.32;6.70;;;13.50;56.30;;;;;;5056316;28;20055;-74
2023/01/25 21:19:53;;;;;;;10.98;6.13;;;13.40;56.80;;;;;;5062928;28;20569;-74
2023/01/25 21:22:21;;;;;;;11.60;7.13;;;13.60;56.90;;;;;;5063443;28;20060;-74
2023/01/25 21:24:48;;;;;;;10.50;6.90;;;;;;;;;;5062521;28;20140;-74
2023/01/25 21:27:15;;;;;;;11.13;6.07;;;;;;;;;;5064492;28;20047;-74
2023/01/25 21:29:42;;;;;;;11.35;6.47;;;13.50;56.30;;;;;;5055093;28;20132;-74
2023/01/25 21:32:09;;;;;;;10.60;7.15;;;13.50;56.80;;;;;;5055376;28;20139;-74
2023/01/25 21:34:36;;;;;;;10.60;6.65;;;;;;;;;;5069975;28;20063;-74
2023/01/25 21:37:03;;;;;;;9.40;6.28;;;13.50;56.20;;;;;;5070090;28;20127;-74
2023/01/25 21:39:31;;;;;;;10.27;6.00;;;13.50;56.70;;;;;;5063685;28;20071;-74
2023/01/25 21:41:57;;;;;;;9.80;6.43;;;13.40;63.80;;;;;;5064051;28;20122;-74
2023/01/25 21:47:08;;;;;;;10.35;6.68;;;13.40;63.60;;;;;;5070369;28;20044;-74
2023/01/25 21:52:19;;;;;;;9.70;6.80;;;14.00;57.10;;;;;;5069393;28;20053;-74
2023/01/25 21:54:47;;;;;;;11.93;7.10;;;13.40;56.80;;;;;;5069038;28;20076;-73
2023/01/25 21:57:14;;;;;;;9.80;6.68;;;13.40;56.80;;;;;;5069815;28;20086;-74
2023/01/25 21:59:41;;;;;;;8.65;5.72;;;12.90;63.40;;;;;;5070195;28;20545;-74
2023/01/25 22:02:10;;;;;;;10.60;6.85;;;13.30;56.80;;;;;;5069529;28;20063;-74
2023/01/25 22:04:37;;;;;;;9.68;6.45;;;13.30;63.40;;;;;;5069668;28;20051;-74
2023/01/25 22:07:04;;;;;;;9.30;6.25;;;13.30;56.80;;;;;;5070099;28;20088;-74
2023/01/25 22:09:31;;;;;;;10.70;7.32;;;13.30;56.80;;;;;;5069221;28;20057;-74
2023/01/25 22:12:00;;;;;;;10.27;6.30;;;13.70;64.70;;;;;;5053018;28;20139;-74
2023/01/25 22:14:27;;;;;;;9.18;6.30;;;12.70;63.60;;;;;;5049367;28;20111;-74
2023/01/25 22:16:54;;;;;;;12.02;7.47;;;13.40;64.40;;;;;;5051872;28;20083;-74